createdAt,value
2018-04-25T00:00:26.714Z,988.36
2018-04-25T00:01:26.705Z,988.33
2018-04-25T00:02:26.704Z,988.32
2018-04-25T00:03:26.703Z,988.32
2018-04-25T00:04:26.701Z,988.33
2018-04-25T00:05:26.701Z,988.33
2018-04-25T00:06:26.698Z,988.31
2018-04-25T00:07:26.697Z,988.3
2018-04-25T00:08:26.695Z,988.33
2018-04-25T00:09:26.697Z,988.35
2018-04-25T00:10:26.691Z,988.31
2018-04-25T00:11:26.693Z,988.28
2018-04-25T00:12:26.694Z,988.23
2018-04-25T00:13:26.695Z,988.28
2018-04-25T00:14:26.687Z,988.28
2018-04-25T00:15:26.688Z,988.25
2018-04-25T00:16:26.683Z,988.24
2018-04-25T00:17:26.682Z,988.28
2018-04-25T00:18:26.680Z,988.27
2018-04-25T00:19:26.680Z,988.29
2018-04-25T00:20:26.677Z,988.23
2018-04-25T00:21:26.678Z,988.26
2018-04-25T00:22:26.676Z,988.23
2018-04-25T00:23:26.674Z,988.23
2018-04-25T00:24:26.677Z,988.21
2018-04-25T00:25:26.670Z,988.22
2018-04-25T00:26:26.669Z,988.23
2018-04-25T00:27:26.666Z,988.23
2018-04-25T00:28:26.665Z,988.22
2018-04-25T00:29:26.665Z,988.15
2018-04-25T00:30:26.663Z,988.19
2018-04-25T00:31:26.664Z,988.2
2018-04-25T00:32:26.659Z,988.19
2018-04-25T00:33:26.658Z,988.18
2018-04-25T00:34:26.655Z,988.15
2018-04-25T00:35:26.655Z,988.13
2018-04-25T00:36:26.651Z,988.1
2018-04-25T00:37:26.650Z,988.12
2018-04-25T00:38:26.648Z,988.1
2018-04-25T00:39:26.648Z,988.11
2018-04-25T00:40:26.646Z,988.17
2018-04-25T00:41:26.646Z,988.12
2018-04-25T00:42:26.641Z,988.12
2018-04-25T00:43:26.644Z,988.1
2018-04-25T00:44:26.690Z,988.08
2018-04-25T00:45:26.640Z,988.1
2018-04-25T00:46:26.636Z,988.09
2018-04-25T00:47:26.635Z,988.06
2018-04-25T00:48:26.631Z,988.06
2018-04-25T00:49:26.631Z,988.07
2018-04-25T00:50:26.629Z,988.09
2018-04-25T00:51:26.627Z,988.04
2018-04-25T00:52:26.624Z,988.04
2018-04-25T00:53:26.624Z,988.04
2018-04-25T00:54:26.622Z,988.02
2018-04-25T00:55:26.621Z,988
2018-04-25T00:56:26.623Z,988.03
2018-04-25T00:57:26.617Z,988
2018-04-25T00:58:26.616Z,988.03
2018-04-25T00:59:26.613Z,988.02
2018-04-25T01:00:26.612Z,988
2018-04-25T01:01:27.911Z,987.98
2018-04-25T01:02:26.608Z,987.94
2018-04-25T01:03:26.605Z,987.94
2018-04-25T01:04:26.602Z,987.94
2018-04-25T01:05:26.603Z,987.9
2018-04-25T01:06:26.603Z,987.9
2018-04-25T01:07:26.600Z,987.88
2018-04-25T01:08:26.598Z,987.85
2018-04-25T01:09:26.596Z,987.84
2018-04-25T01:10:26.596Z,987.86
2018-04-25T01:11:26.592Z,987.86
2018-04-25T01:12:26.591Z,987.9
2018-04-25T01:13:26.588Z,987.88
2018-04-25T01:14:26.586Z,987.82
2018-04-25T01:15:26.585Z,987.84
2018-04-25T01:16:26.583Z,987.85
2018-04-25T01:17:26.581Z,987.84
2018-04-25T01:18:26.578Z,987.83
2018-04-25T01:19:26.578Z,987.83
2018-04-25T01:20:26.578Z,987.86
2018-04-25T01:21:26.579Z,987.76
2018-04-25T01:22:26.572Z,987.81
2018-04-25T01:23:26.575Z,987.81
2018-04-25T01:24:26.569Z,987.79
2018-04-25T01:25:26.566Z,987.76
2018-04-25T01:26:26.566Z,987.76
2018-04-25T01:27:26.564Z,987.74
2018-04-25T01:28:26.562Z,987.75
2018-04-25T01:29:26.566Z,987.75
2018-04-25T01:30:26.560Z,987.75
2018-04-25T01:31:26.558Z,987.75
2018-04-25T01:32:26.555Z,987.75
2018-04-25T01:33:26.556Z,987.77
2018-04-25T01:34:26.553Z,987.73
2018-04-25T01:35:26.554Z,987.73
2018-04-25T01:36:26.551Z,987.74
2018-04-25T01:37:26.550Z,987.75
2018-04-25T01:38:26.557Z,987.75
2018-04-25T01:39:26.546Z,987.74
2018-04-25T01:40:26.545Z,987.73
2018-04-25T01:41:26.544Z,987.7
2018-04-25T01:42:26.543Z,987.67
2018-04-25T01:43:26.542Z,987.71
2018-04-25T01:44:26.541Z,987.72
2018-04-25T01:45:26.557Z,987.69
2018-04-25T01:46:26.538Z,987.68
2018-04-25T01:47:26.539Z,987.7
2018-04-25T01:48:26.534Z,987.71
2018-04-25T01:49:26.537Z,987.69
2018-04-25T01:50:26.532Z,987.68
2018-04-25T01:51:26.531Z,987.68
2018-04-25T01:52:26.528Z,987.68
2018-04-25T01:53:26.526Z,987.65
2018-04-25T01:54:26.526Z,987.61
2018-04-25T01:55:26.523Z,987.63
2018-04-25T01:56:26.520Z,987.62
2018-04-25T01:57:26.525Z,987.67
2018-04-25T01:58:26.523Z,987.68
2018-04-25T01:59:26.518Z,987.68
2018-04-25T02:00:26.512Z,987.67
2018-04-25T02:01:26.509Z,987.7
2018-04-25T02:02:26.507Z,987.63
2018-04-25T02:03:26.505Z,987.67
2018-04-25T02:04:26.507Z,987.58
2018-04-25T02:05:26.503Z,987.64
2018-04-25T02:06:26.499Z,987.65
2018-04-25T02:07:26.498Z,987.63
2018-04-25T02:08:26.496Z,987.62
2018-04-25T02:09:26.490Z,987.61
2018-04-25T02:10:26.496Z,987.6
2018-04-25T02:11:26.493Z,987.6
2018-04-25T02:12:26.484Z,987.64
2018-04-25T02:13:26.481Z,987.54
2018-04-25T02:14:26.484Z,987.53
2018-04-25T02:15:26.483Z,987.51
2018-04-25T02:16:26.477Z,987.55
2018-04-25T02:17:26.472Z,987.58
2018-04-25T02:18:26.469Z,987.52
2018-04-25T02:19:26.466Z,987.56
2018-04-25T02:20:26.463Z,987.51
2018-04-25T02:21:26.460Z,987.53
2018-04-25T02:22:26.459Z,987.57
2018-04-25T02:23:26.455Z,987.5
2018-04-25T02:24:26.455Z,987.49
2018-04-25T02:25:26.451Z,987.51
2018-04-25T02:26:26.454Z,987.5
2018-04-25T02:27:26.452Z,987.5
2018-04-25T02:28:26.452Z,987.5
2018-04-25T02:29:26.441Z,987.49
2018-04-25T02:30:26.450Z,987.51
2018-04-25T02:31:26.438Z,987.53
2018-04-25T02:32:26.432Z,987.49
2018-04-25T02:33:26.439Z,987.53
2018-04-25T02:34:26.426Z,987.49
2018-04-25T02:35:26.426Z,987.49
2018-04-25T02:36:26.424Z,987.52
2018-04-25T02:37:26.420Z,987.5
2018-04-25T02:38:26.420Z,987.52
2018-04-25T02:39:26.413Z,987.53
2018-04-25T02:40:26.414Z,987.54
2018-04-25T02:41:26.420Z,987.54
2018-04-25T02:42:26.406Z,987.57
2018-04-25T02:43:26.411Z,987.58
2018-04-25T02:44:26.403Z,987.59
2018-04-25T02:45:26.405Z,987.57
2018-04-25T02:46:26.402Z,987.57
2018-04-25T02:47:26.404Z,987.55
2018-04-25T02:48:26.394Z,987.53
2018-04-25T02:49:26.425Z,987.52
2018-04-25T02:50:26.441Z,987.54
2018-04-25T02:51:26.384Z,987.52
2018-04-25T02:52:26.383Z,987.47
2018-04-25T02:53:26.380Z,987.52
2018-04-25T02:54:26.376Z,987.52
2018-04-25T02:55:26.375Z,987.52
2018-04-25T02:56:26.372Z,987.53
2018-04-25T02:57:26.369Z,987.52
2018-04-25T02:58:26.366Z,987.52
2018-04-25T02:59:26.363Z,987.46
2018-04-25T03:00:26.360Z,987.48
2018-04-25T03:01:26.360Z,987.46
2018-04-25T03:02:29.059Z,987.47
2018-04-25T03:03:26.352Z,987.41
2018-04-25T03:04:26.352Z,987.44
2018-04-25T03:05:26.353Z,987.42
2018-04-25T03:06:26.366Z,987.43
2018-04-25T03:07:26.343Z,987.42
2018-04-25T03:08:26.339Z,987.43
2018-04-25T03:09:26.336Z,987.39
2018-04-25T03:10:26.334Z,987.4
2018-04-25T03:11:26.332Z,987.39
2018-04-25T03:12:26.328Z,987.37
2018-04-25T03:13:26.332Z,987.35
2018-04-25T03:14:26.322Z,987.38
2018-04-25T03:15:26.319Z,987.39
2018-04-25T03:16:26.318Z,987.38
2018-04-25T03:17:26.376Z,987.44
2018-04-25T03:18:26.311Z,987.41
2018-04-25T03:19:26.353Z,987.38
2018-04-25T03:20:26.307Z,987.36
2018-04-25T03:21:26.302Z,987.38
2018-04-25T03:22:26.309Z,987.39
2018-04-25T03:23:26.297Z,987.37
2018-04-25T03:24:26.293Z,987.39
2018-04-25T03:25:26.292Z,987.41
2018-04-25T03:26:26.288Z,987.39
2018-04-25T03:27:26.288Z,987.36
2018-04-25T03:28:26.283Z,987.41
2018-04-25T03:29:26.284Z,987.35
2018-04-25T03:37:53.201Z,987.39
2018-04-25T03:38:53.201Z,987.42
2018-04-25T03:39:53.194Z,987.39
2018-04-25T03:40:53.192Z,987.37
2018-04-25T03:41:53.192Z,987.39
2018-04-25T03:42:53.187Z,987.37
2018-04-25T03:43:53.186Z,987.38
2018-04-25T03:44:53.182Z,987.41
2018-04-25T03:45:53.181Z,987.4
2018-04-25T03:46:53.179Z,987.43
2018-04-25T03:47:53.176Z,987.44
2018-04-25T03:48:53.174Z,987.43
2018-04-25T03:49:53.172Z,987.47
2018-04-25T03:50:53.169Z,987.45
2018-04-25T03:51:53.168Z,987.44
2018-04-25T03:52:53.167Z,987.43
2018-04-25T03:53:53.160Z,987.44
2018-04-25T03:54:53.159Z,987.42
2018-04-25T03:55:53.157Z,987.44
2018-04-25T03:56:53.160Z,987.42
2018-04-25T03:57:53.162Z,987.45
2018-04-25T03:58:53.157Z,987.43
2018-04-25T03:59:53.150Z,987.43
2018-04-25T04:00:53.145Z,987.4
2018-04-25T04:01:53.144Z,987.44
2018-04-25T04:02:53.140Z,987.42
2018-04-25T04:03:53.137Z,987.43
2018-04-25T04:04:53.135Z,987.4
2018-04-25T04:05:53.132Z,987.4
2018-04-25T04:06:53.130Z,987.4
2018-04-25T04:07:53.126Z,987.39
2018-04-25T04:08:53.125Z,987.35
2018-04-25T04:09:53.124Z,987.36
2018-04-25T04:10:53.120Z,987.4
2018-04-25T04:11:53.118Z,987.36
2018-04-25T04:12:53.148Z,987.29
2018-04-25T04:13:53.116Z,987.26
2018-04-25T04:14:53.112Z,987.24
2018-04-25T04:15:53.109Z,987.21
2018-04-25T04:16:53.107Z,987.19
2018-04-25T04:17:53.112Z,987.2
2018-04-25T04:18:53.110Z,987.2
2018-04-25T04:19:53.107Z,987.2
2018-04-25T04:20:53.098Z,987.21
2018-04-25T04:21:53.097Z,987.26
2018-04-25T04:22:53.091Z,987.21
2018-04-25T04:23:53.091Z,987.24
2018-04-25T04:24:53.154Z,987.26
2018-04-25T04:25:53.085Z,987.3
2018-04-25T04:26:53.082Z,987.25
2018-04-25T04:27:53.080Z,987.29
2018-04-25T04:28:53.078Z,987.28
2018-04-25T04:29:53.076Z,987.29
2018-04-25T04:30:53.074Z,987.31
2018-04-25T04:31:53.072Z,987.31
2018-04-25T04:32:53.073Z,987.3
2018-04-25T04:33:53.069Z,987.33
2018-04-25T04:34:53.067Z,987.33
2018-04-25T04:35:53.062Z,987.3
2018-04-25T04:36:53.064Z,987.31
2018-04-25T04:37:53.059Z,987.31
2018-04-25T04:38:53.066Z,987.32
2018-04-25T04:39:53.054Z,987.29
2018-04-25T04:40:53.057Z,987.28
2018-04-25T04:41:53.050Z,987.31
2018-04-25T04:42:53.047Z,987.27
2018-04-25T04:43:53.049Z,987.29
2018-04-25T04:44:53.044Z,987.21
2018-04-25T04:45:53.043Z,987.27
2018-04-25T04:46:53.041Z,987.25
2018-04-25T04:47:53.039Z,987.25
2018-04-25T04:48:53.036Z,987.2
2018-04-25T04:49:53.034Z,987.17
2018-04-25T04:50:53.033Z,987.25
2018-04-25T04:51:53.033Z,987.26
2018-04-25T04:52:53.031Z,987.23
2018-04-25T04:53:53.079Z,987.19
2018-04-25T04:54:53.027Z,987.22
2018-04-25T04:55:53.026Z,987.15
2018-04-25T04:56:53.024Z,987.14
2018-04-25T04:57:53.023Z,987.2
2018-04-25T04:58:53.023Z,987.14
2018-04-25T04:59:53.032Z,987.16
2018-04-25T05:00:53.020Z,987.15
2018-04-25T05:01:53.021Z,987.2
2018-04-25T05:02:53.018Z,987.24
2018-04-25T05:03:53.021Z,987.25
2018-04-25T05:04:53.022Z,987.27
2018-04-25T05:05:53.020Z,987.25
2018-04-25T05:06:53.039Z,987.19
2018-04-25T05:07:53.020Z,987.19
2018-04-25T05:08:54.265Z,987.15
2018-04-25T05:09:53.023Z,987.27
2018-04-25T05:10:53.023Z,987.33
2018-04-25T05:11:53.016Z,987.36
2018-04-25T05:12:53.015Z,987.35
2018-04-25T05:13:53.023Z,987.27
2018-04-25T05:14:53.020Z,987.22
2018-04-25T05:15:53.030Z,987.29
2018-04-25T05:16:53.019Z,987.28
2018-04-25T05:17:53.019Z,987.26
2018-04-25T05:18:53.027Z,987.26
2018-04-25T05:19:53.029Z,987.25
2018-04-25T05:20:53.036Z,987.24
2018-04-25T05:21:53.027Z,987.27
2018-04-25T05:22:53.031Z,987.26
2018-04-25T05:23:53.029Z,987.28
2018-04-25T05:24:53.032Z,987.31
2018-04-25T05:25:53.032Z,987.32
2018-04-25T05:26:53.034Z,987.32
2018-04-25T05:27:53.034Z,987.29
2018-04-25T05:28:53.034Z,987.29
2018-04-25T05:29:53.039Z,987.22
2018-04-25T05:30:53.036Z,987.28
2018-04-25T05:31:53.095Z,987.31
2018-04-25T05:32:53.039Z,987.32
2018-04-25T05:33:53.041Z,987.27
2018-04-25T05:34:53.043Z,987.25
2018-04-25T05:35:53.044Z,987.28
2018-04-25T05:36:53.044Z,987.21
2018-04-25T05:37:53.045Z,987.19
2018-04-25T05:38:53.050Z,987.21
2018-04-25T05:39:53.045Z,987.22
2018-04-25T05:40:53.046Z,987.23
2018-04-25T05:41:53.048Z,987.22
2018-04-25T05:42:53.048Z,987.21
2018-04-25T05:43:53.048Z,987.26
2018-04-25T05:44:53.048Z,987.17
2018-04-25T05:45:53.133Z,987.17
2018-04-25T05:46:53.050Z,987.16
2018-04-25T05:47:53.053Z,987.19
2018-04-25T05:48:53.058Z,987.23
2018-04-25T05:49:53.052Z,987.23
2018-04-25T05:50:53.053Z,987.28
2018-04-25T05:51:53.053Z,987.24
2018-04-25T05:52:53.056Z,987.32
2018-04-25T05:53:53.057Z,987.27
2018-04-25T05:54:53.110Z,987.2
2018-04-25T05:55:53.055Z,987.23
2018-04-25T05:56:53.062Z,987.16
2018-04-25T05:57:53.145Z,987.21
2018-04-25T05:58:53.057Z,987.17
2018-04-25T05:59:53.059Z,987.22
2018-04-25T06:00:53.059Z,987.24
2018-04-25T06:01:53.061Z,987.22
2018-04-25T06:02:53.070Z,987.26
2018-04-25T06:03:53.071Z,987.28
2018-04-25T06:04:53.067Z,987.24
2018-04-25T06:05:53.072Z,987.19
2018-04-25T06:06:53.073Z,987.2
2018-04-25T06:07:53.076Z,987.2
2018-04-25T06:08:53.086Z,987.23
2018-04-25T06:09:55.538Z,987.21
2018-04-25T06:10:53.085Z,987.1
2018-04-25T06:11:53.089Z,987.09
2018-04-25T06:12:53.091Z,987.15
2018-04-25T06:22:46.019Z,987.2
2018-04-25T06:23:46.003Z,987.22
2018-04-25T06:24:46.006Z,987.27
2018-04-25T06:25:46.006Z,987.21
2018-04-25T06:26:46.011Z,987.25
2018-04-25T06:27:46.068Z,987.24
2018-04-25T06:28:46.025Z,987.24
2018-04-25T06:29:46.023Z,987.25
2018-04-25T06:30:46.025Z,987.19
2018-04-25T06:31:46.034Z,987.25
2018-04-25T06:32:46.038Z,987.25
2018-04-25T06:33:46.037Z,987.21
2018-04-25T06:34:46.044Z,987.27
2018-04-25T06:35:46.048Z,987.21
2018-04-25T06:36:46.053Z,987.18
2018-04-25T06:37:46.061Z,987.15
2018-04-25T06:38:46.064Z,987.09
2018-04-25T06:39:46.071Z,987.16
2018-04-25T06:40:46.080Z,987.1
2018-04-25T06:41:46.082Z,987.09
2018-04-25T06:42:47.440Z,987.09
2018-04-25T06:43:46.093Z,987.08
2018-04-25T06:44:46.113Z,987.13
2018-04-25T06:45:46.108Z,987.11
2018-04-25T06:46:46.114Z,987.12
2018-04-25T06:47:46.118Z,987.07
2018-04-25T06:48:46.123Z,987.06
2018-04-25T06:49:46.132Z,987.08
2018-04-25T06:50:46.235Z,987.09
2018-04-25T06:51:46.141Z,987.04
2018-04-25T06:52:46.149Z,987.07
2018-04-25T06:53:46.153Z,987.09
2018-04-25T06:54:46.161Z,987.02
2018-04-25T06:55:46.166Z,987.05
2018-04-25T06:56:46.199Z,987.08
2018-04-25T06:57:46.186Z,987.04
2018-04-25T06:58:46.190Z,987.02
2018-04-25T06:59:46.191Z,987.04
2018-04-25T07:00:46.197Z,987.04
2018-04-25T07:01:46.206Z,986.98
2018-04-25T07:02:46.213Z,987.06
2018-04-25T07:03:46.217Z,987.09
2018-04-25T07:04:46.229Z,986.98
2018-04-25T07:05:46.233Z,987.02
2018-04-25T07:06:46.238Z,987.03
2018-04-25T07:07:46.250Z,986.99
2018-04-25T07:08:46.253Z,987
2018-04-25T07:09:46.257Z,987
2018-04-25T07:10:46.263Z,986.98
2018-04-25T07:11:46.271Z,986.98
2018-04-25T07:12:46.277Z,986.93
2018-04-25T07:13:46.289Z,986.93
2018-04-25T07:14:46.291Z,987.03
2018-04-25T07:15:46.299Z,987.04
2018-04-25T07:16:46.303Z,986.94
2018-04-25T07:17:46.316Z,986.97
2018-04-25T07:18:46.320Z,986.97
2018-04-25T07:19:46.325Z,986.97
2018-04-25T07:20:46.342Z,987.02
2018-04-25T07:21:46.342Z,986.96
2018-04-25T07:22:46.345Z,987
2018-04-25T07:23:46.383Z,987.07
2018-04-25T07:24:46.362Z,987.07
2018-04-25T07:25:46.376Z,987.07
2018-04-25T07:26:46.375Z,987.04
2018-04-25T07:27:46.383Z,987.06
2018-04-25T07:28:46.390Z,987.14
2018-04-25T07:29:46.401Z,987.11
2018-04-25T07:30:46.405Z,987.07
2018-04-25T07:31:46.411Z,987.07
2018-04-25T07:32:46.421Z,987.04
2018-04-25T07:33:46.427Z,987.05
2018-04-25T07:34:46.434Z,987.03
2018-04-25T07:35:46.448Z,987.04
2018-04-25T07:36:46.448Z,987.02
2018-04-25T07:37:46.453Z,987.05
2018-04-25T07:38:46.460Z,987.02
2018-04-25T07:39:46.472Z,987.02
2018-04-25T07:40:46.480Z,987.07
2018-04-25T07:41:46.575Z,987.02
2018-04-25T07:42:46.493Z,987.07
2018-04-25T07:43:46.492Z,987.04
2018-04-25T07:44:46.497Z,987.01
2018-04-25T07:45:46.524Z,987
2018-04-25T07:46:46.590Z,987.05
2018-04-25T07:47:46.597Z,987
2018-04-25T07:48:46.526Z,987.01
2018-04-25T07:49:46.539Z,987.04
2018-04-25T07:50:46.539Z,987.03
2018-04-25T07:51:46.546Z,987.08
2018-04-25T07:52:46.555Z,987.04
2018-04-25T07:53:46.563Z,987.04
2018-04-25T07:54:46.570Z,987.09
2018-04-25T07:55:46.575Z,987.06
2018-04-25T07:56:46.590Z,987
2018-04-25T07:57:46.657Z,987.05
2018-04-25T07:58:46.653Z,987.09
2018-04-25T07:59:46.609Z,987.05
2018-04-25T08:00:46.610Z,987.08
2018-04-25T08:01:46.618Z,987.11
2018-04-25T08:02:46.631Z,987.1
2018-04-25T08:03:46.657Z,987.14
2018-04-25T08:04:46.660Z,987.04
2018-04-25T08:05:46.650Z,987.07
2018-04-25T08:06:46.657Z,987.09
2018-04-25T08:07:46.670Z,987.14
2018-04-25T08:08:46.672Z,987.16
2018-04-25T08:09:46.681Z,987.07
2018-04-25T08:10:46.692Z,987.05
2018-04-25T08:11:46.703Z,987.07
2018-04-25T08:12:46.716Z,987.05
2018-04-25T08:13:47.270Z,987.04
2018-04-25T08:14:46.722Z,987.05
2018-04-25T08:15:46.728Z,987.02
2018-04-25T08:16:46.741Z,986.95
2018-04-25T08:17:46.747Z,986.86
2018-04-25T08:18:46.764Z,986.9
2018-04-25T08:19:46.760Z,987
2018-04-25T08:20:46.769Z,986.85
2018-04-25T08:21:46.780Z,987.07
2018-04-25T08:22:46.786Z,986.91
2018-04-25T08:23:46.823Z,986.84
2018-04-25T08:24:46.802Z,986.88
2018-04-25T08:25:46.814Z,986.9
2018-04-25T08:26:46.826Z,986.89
2018-04-25T08:27:46.840Z,986.9
2018-04-25T08:28:46.884Z,986.9
2018-04-25T08:29:46.848Z,986.87
2018-04-25T08:30:46.863Z,986.93
2018-04-25T08:31:46.873Z,986.97
2018-04-25T08:32:46.872Z,986.94
2018-04-25T08:33:46.874Z,986.99
2018-04-25T08:34:46.885Z,987.02
2018-04-25T08:35:46.889Z,987.04
2018-04-25T08:36:46.896Z,986.98
2018-04-25T08:37:46.903Z,987.07
2018-04-25T08:38:46.910Z,986.99
2018-04-25T08:39:46.943Z,986.98
2018-04-25T08:40:46.936Z,987.04
2018-04-25T08:41:46.939Z,987.01
2018-04-25T08:42:46.945Z,986.91
2018-04-25T08:43:47.408Z,987.02
2018-04-25T08:44:47.005Z,987.07
2018-04-25T08:45:46.962Z,987.07
2018-04-25T08:46:46.970Z,987.09
2018-04-25T08:47:46.979Z,987.21
2018-04-25T08:48:46.989Z,987.16
2018-04-25T08:49:46.992Z,987.07
2018-04-25T08:50:47.009Z,987.2
2018-04-25T08:51:47.004Z,987.03
2018-04-25T08:52:47.022Z,987.04
2018-04-25T08:53:47.017Z,987.11
2018-04-25T08:54:47.022Z,987.15
2018-04-25T08:55:47.029Z,987.14
2018-04-25T08:56:47.035Z,987.17
2018-04-25T08:57:47.040Z,987.17
2018-04-25T08:58:47.352Z,987.14
2018-04-25T08:59:47.053Z,987.1
2018-04-25T09:00:47.058Z,987.03
2018-04-25T09:01:47.064Z,987.12
2018-04-25T09:02:47.076Z,987.18
2018-04-25T09:03:47.075Z,987.16
2018-04-25T09:04:47.078Z,987.13
2018-04-25T09:05:47.111Z,987.04
2018-04-25T09:06:47.088Z,987.01
2018-04-25T09:07:47.094Z,987.04
2018-04-25T09:08:47.099Z,987.04
2018-04-25T09:09:47.105Z,987.05
2018-04-25T09:10:47.115Z,987
2018-04-25T09:11:47.115Z,987.05
2018-04-25T09:12:47.119Z,987.05
2018-04-25T09:13:48.225Z,987.01
2018-04-25T09:14:47.130Z,987.01
2018-04-25T09:15:47.135Z,986.96
2018-04-25T09:16:47.139Z,987
2018-04-25T09:17:47.145Z,986.88
2018-04-25T09:18:47.150Z,987.05
2018-04-25T09:19:47.154Z,987.03
2018-04-25T09:20:47.159Z,987.04
2018-04-25T09:21:47.162Z,987
2018-04-25T09:22:47.172Z,987.02
2018-04-25T09:23:47.176Z,987.03
2018-04-25T09:24:47.178Z,987.14
2018-04-25T09:25:47.183Z,987.08
2018-04-25T09:26:47.193Z,987.19
2018-04-25T09:27:47.192Z,987
2018-04-25T09:28:47.195Z,987.09
2018-04-25T09:29:47.202Z,987.04
2018-04-25T09:30:47.212Z,987.01
2018-04-25T09:31:47.213Z,987.11
2018-04-25T09:32:47.215Z,987.01
2018-04-25T09:33:47.220Z,987.08
2018-04-25T09:34:47.227Z,987.05
2018-04-25T09:35:47.228Z,987.2
2018-04-25T09:36:47.246Z,987.15
2018-04-25T09:37:47.239Z,987.19
2018-04-25T09:38:47.243Z,987.14
2018-04-25T09:39:47.248Z,987.28
2018-04-25T09:40:47.253Z,987.28
2018-04-25T09:41:47.261Z,987.27
2018-04-25T09:42:47.266Z,987.33
2018-04-25T09:43:47.268Z,987.27
2018-04-25T09:44:47.268Z,987.25
2018-04-25T09:45:47.274Z,987.28
2018-04-25T09:46:47.279Z,987.21
2018-04-25T09:47:47.282Z,987.26
2018-04-25T09:48:47.294Z,987.19
2018-04-25T09:49:47.295Z,987.14
2018-04-25T09:50:47.295Z,987.18
2018-04-25T09:51:47.345Z,987.22
2018-04-25T09:52:47.309Z,987.12
2018-04-25T09:53:47.318Z,987.2
2018-04-25T09:54:47.325Z,987.12
2018-04-25T09:55:47.325Z,987.14
2018-04-25T09:56:47.323Z,987.1
2018-04-25T09:57:47.449Z,987.11
2018-04-25T09:58:47.337Z,987.1
2018-04-25T09:59:47.342Z,987.05
2018-04-25T10:00:47.345Z,987.03
2018-04-25T10:01:47.350Z,986.97
2018-04-25T10:02:47.351Z,986.81
2018-04-25T10:03:47.359Z,987.03
2018-04-25T10:04:47.367Z,987.17
2018-04-25T10:05:47.365Z,987.17
2018-04-25T10:06:47.372Z,987.03
2018-04-25T10:07:47.385Z,987.04
2018-04-25T10:08:47.390Z,987.12
2018-04-25T10:09:47.398Z,987.01
2018-04-25T10:10:47.441Z,987.02
2018-04-25T10:11:47.400Z,987.05
2018-04-25T10:12:47.398Z,986.93
2018-04-25T10:13:47.419Z,987.02
2018-04-25T10:14:47.423Z,987.13
2018-04-25T10:15:47.427Z,987.01
2018-04-25T10:16:47.425Z,987.2
2018-04-25T10:17:47.432Z,987.07
2018-04-25T10:18:47.433Z,987.08
2018-04-25T10:19:47.453Z,987.04
2018-04-25T10:20:47.456Z,987.06
2018-04-25T10:21:47.459Z,987.11
2018-04-25T10:52:40.502Z,986.98
2018-04-25T10:53:36.749Z,987
2018-04-25T10:54:36.749Z,986.97
2018-04-25T10:55:36.749Z,986.99
2018-04-25T10:56:36.753Z,986.93
2018-04-25T10:57:36.755Z,986.91
2018-04-25T10:58:36.757Z,987.11
2018-04-25T10:59:36.762Z,986.91
2018-04-25T11:00:36.763Z,986.86
2018-04-25T11:01:36.768Z,986.8
2018-04-25T11:02:36.770Z,986.89
2018-04-25T11:03:36.775Z,986.74
2018-04-25T11:04:36.823Z,986.76
2018-04-25T11:05:36.783Z,986.82
2018-04-25T11:06:36.785Z,986.95
2018-04-25T11:07:36.789Z,986.95
2018-04-25T11:08:36.793Z,986.86
2018-04-25T11:09:36.798Z,986.81
2018-04-25T11:10:36.809Z,986.78
2018-04-25T11:11:36.806Z,986.87
2018-04-25T11:12:36.810Z,986.82
2018-04-25T11:13:36.815Z,986.86
2018-04-25T11:14:36.820Z,986.78
2018-04-25T11:15:36.902Z,986.82
2018-04-25T11:16:36.828Z,986.81
2018-04-25T11:17:36.835Z,986.67
2018-04-25T11:18:36.838Z,986.7
2018-04-25T11:19:36.840Z,986.68
2018-04-25T11:20:36.842Z,986.74
2018-04-25T11:21:36.845Z,986.73
2018-04-25T11:22:36.857Z,986.81
2018-04-25T11:23:36.861Z,986.81
2018-04-25T11:24:36.860Z,986.8
2018-04-25T11:25:36.862Z,986.76
2018-04-25T11:26:36.940Z,986.87
2018-04-25T11:27:36.869Z,986.76
2018-04-25T11:28:36.874Z,986.82
2018-04-25T11:29:36.880Z,986.71
2018-04-25T11:30:36.883Z,986.72
2018-04-25T11:31:36.888Z,987
2018-04-25T11:32:36.891Z,986.94
2018-04-25T11:33:36.896Z,986.97
2018-04-25T11:34:36.901Z,986.9
2018-04-25T11:35:36.905Z,986.92
2018-04-25T11:36:36.917Z,986.96
2018-04-25T11:37:36.913Z,986.94
2018-04-25T11:38:36.917Z,986.96
2018-04-25T11:39:36.924Z,986.93
2018-04-25T11:40:36.994Z,986.91
2018-04-25T11:41:36.932Z,986.97
2018-04-25T11:42:36.936Z,986.93
2018-04-25T11:43:36.946Z,986.96
2018-04-25T11:44:36.942Z,986.97
2018-04-25T11:45:36.947Z,987
2018-04-25T11:46:36.950Z,987
2018-04-25T11:47:36.957Z,987.1
2018-04-25T11:48:36.959Z,987.02
2018-04-25T11:49:36.964Z,986.99
2018-04-25T11:50:36.969Z,986.97
2018-04-25T11:51:36.974Z,986.92
2018-04-25T11:52:36.980Z,986.98
2018-04-25T11:53:36.981Z,986.95
2018-04-25T11:54:36.986Z,987.01
2018-04-25T11:55:36.990Z,987.06
2018-04-25T11:56:36.994Z,987.01
2018-04-25T11:57:36.999Z,987.12
2018-04-25T11:58:37.002Z,987.05
2018-04-25T11:59:37.034Z,987.07
2018-04-25T12:00:37.034Z,987.08
2018-04-25T12:01:37.014Z,987.09
2018-04-25T12:02:37.020Z,987.01
2018-04-25T12:03:37.028Z,987.06
2018-04-25T12:04:37.027Z,987.11
2018-04-25T12:05:37.031Z,987.09
2018-04-25T12:06:37.035Z,987.12
2018-04-25T12:07:37.047Z,987.15
2018-04-25T12:08:37.048Z,987.21
2018-04-25T12:09:37.048Z,987.21
2018-04-25T12:10:37.055Z,987.11
2018-04-25T12:11:37.062Z,987.23
2018-04-25T12:12:37.060Z,987.17
2018-04-25T12:13:37.068Z,987.22
2018-04-25T12:14:37.069Z,987.21
2018-04-25T12:15:37.080Z,987.1
2018-04-25T12:16:37.077Z,987.12
2018-04-25T12:17:37.080Z,987.08
2018-04-25T12:18:37.168Z,987.08
2018-04-25T12:19:37.098Z,986.99
2018-04-25T12:20:37.094Z,987.09
2018-04-25T12:21:37.100Z,987.12
2018-04-25T12:22:37.102Z,987.12
2018-04-25T12:23:38.957Z,987.09
2018-04-25T12:24:37.117Z,987.12
2018-04-25T12:25:37.121Z,987.27
2018-04-25T12:26:37.125Z,987.21
2018-04-25T12:27:37.121Z,987.24
2018-04-25T12:28:37.125Z,987.23
2018-04-25T12:29:37.152Z,987.13
2018-04-25T12:30:37.135Z,987.12
2018-04-25T12:31:37.137Z,987.16
2018-04-25T12:32:37.139Z,987.07
2018-04-25T12:33:37.142Z,987.08
2018-04-25T12:34:37.146Z,987.17
2018-04-25T12:35:37.150Z,987.1
2018-04-25T12:36:37.157Z,987.17
2018-04-25T12:37:37.161Z,987.24
2018-04-25T12:38:37.162Z,987.32
2018-04-25T12:39:37.166Z,987.3
2018-04-25T12:40:37.170Z,987.32
2018-04-25T12:41:37.243Z,987.28
2018-04-25T12:42:37.194Z,987.28
2018-04-25T12:43:37.185Z,987.27
2018-04-25T12:44:37.186Z,987.21
2018-04-25T12:45:37.187Z,987.09
2018-04-25T12:46:37.193Z,987.22
2018-04-25T12:47:37.200Z,987.15
2018-04-25T12:48:37.199Z,987.21
2018-04-25T12:49:37.203Z,987.18
2018-04-25T12:50:37.207Z,987.16
2018-04-25T12:51:37.212Z,987.11
2018-04-25T12:52:37.216Z,987.11
2018-04-25T12:53:37.219Z,987.06
2018-04-25T12:54:37.225Z,987.09
2018-04-25T12:55:37.269Z,987.1
2018-04-25T12:56:37.231Z,987.06
2018-04-25T12:57:37.238Z,986.97
2018-04-25T12:58:37.244Z,987.09
2018-04-25T12:59:37.242Z,987.1
2018-04-25T13:00:37.257Z,987.14
2018-04-25T13:01:37.346Z,987.14
2018-04-25T13:02:37.259Z,987.1
2018-04-25T13:03:37.262Z,987.07
2018-04-25T13:04:37.263Z,987.1
2018-04-25T13:05:37.267Z,987.1
2018-04-25T13:06:37.272Z,987.16
2018-04-25T13:07:37.273Z,987.09
2018-04-25T13:08:37.278Z,986.98
2018-04-25T13:09:37.286Z,987.1
2018-04-25T13:10:37.285Z,987.04
2018-04-25T13:11:37.290Z,987.02
2018-04-25T13:12:37.295Z,987.14
2018-04-25T13:13:37.297Z,987.25
2018-04-25T13:14:37.300Z,987.23
2018-04-25T13:15:37.306Z,987.19
2018-04-25T13:16:37.309Z,987.18
2018-04-25T13:17:37.314Z,987.18
2018-04-25T13:18:37.328Z,987.18